• Join FlightAware (Why Join?)
  • Login
  • US Flag 
08:13AM EST


 

Airport Tracker/Info


-or-


 

Live Flight TrackerFlight Track Log ✈ AAL963 ✈ 24-Jun-2013 ✈ KDFW - SBGR / GRU

Flight Track Log - Related Links

Times and Time Zones

All times are in EDT time to prevent confusion due to time zone crossing. See the AAL963 flight status page for this flight to view local times or setup timezone preferences in your user account.

Time Position Orientation Groundspeed Altitude Reporting Facility
EDT Latitude Longitude Course Direction KTS MPH feet Rate Location/Type
09:08PM 32.7196 -96.8087 157° South  Level Estimated
09:08PM 32.7810 -97.0740 157° South 239 275 3,800  Level FlightAware
09:08PM 32.7640 -97.0780 191° South 241 277 4,300 2,100 Climbing FlightAware
09:08PM 32.7380 -97.0840 191° South 242 278 5,200 2,340 Climbing FlightAware
09:09PM 32.7070 -97.0910 191° South 243 280 6,300 2,040 Climbing FlightAware
09:09PM 32.6750 -97.0970 189° South 256 295 7,100 1,800 Climbing FlightAware
09:10PM 32.6540 -97.1000 187° South 261 300 7,700 1,980 Climbing FlightAware
09:10PM 32.6230 -97.0910 166° South 273 314 8,600 2,040 Climbing FlightAware
09:10PM 32.5910 -97.0670 148° Southeast 281 323 9,600 1,620 Climbing FlightAware
09:11PM 32.5440 -97.0270 144° Southeast 309 356 10,600 1,140 Climbing FlightAware
09:12PM 32.4920 -96.9840 145° Southeast 347 399 11,200 840 Climbing FlightAware
09:13PM 32.4370 -96.9390 145° Southeast 377 434 11,800 1,260 Climbing FlightAware
09:13PM 32.3740 -96.8880 146° Southeast 391 450 13,000 1,800 Climbing FlightAware
09:14PM 32.3060 -96.8330 146° Southeast 401 461 14,400 1,800 Climbing FlightAware
09:15PM 32.2370 -96.7970 156° South 404 465 15,600 1,680 Climbing FlightAware
09:15PM 32.1610 -96.7680 162° South 412 474 16,800 1,620 Climbing FlightAware
09:16PM 32.1134 -96.7503 163° South 417 480 17,500 1,500 Climbing FlightAware ADS-B
09:16PM 32.0497 -96.7261 162° South 420 483 18,300 1,380 Climbing FlightAware ADS-B
09:17PM 31.9848 -96.7014 162° South 434 499 19,100 1,440 Climbing FlightAware ADS-B
09:17PM 31.9231 -96.6780 162° South 437 503 19,900 1,440 Climbing FlightAware ADS-B
09:18PM 31.8586 -96.6533 162° South 447 514 20,700 1,500 Climbing FlightAware ADS-B
09:18PM 31.7980 -96.6283 161° South 454 522 21,500 1,440 Climbing FlightAware ADS-B
09:19PM 31.7347 -96.6020 161° South 461 531 22,200 1,380 Climbing FlightAware ADS-B
09:20PM 31.6679 -96.5745 161° South 468 539 23,000 1,380 Climbing FlightAware ADS-B
09:20PM 31.5941 -96.5445 161° South 474 545 23,800 1,320 Climbing FlightAware ADS-B
09:21PM 31.5282 -96.5177 161° South 477 549 24,500 1,380 Climbing FlightAware ADS-B
09:21PM 31.4609 -96.4916 162° South 480 552 25,300 1,200 Climbing FlightAware ADS-B
09:23PM 31.2655 -96.4195 162° South 494 568 27,000 1,080 Climbing FlightAware ADS-B
09:23PM 31.2129 -96.3996 162° South 497 572 27,400 960 Climbing FlightAware ADS-B
09:23PM 31.1718 -96.3769 152° Southeast 500 575 27,700 1,020 Climbing FlightAware ADS-B
09:24PM 31.1213 -96.3307 140° Southeast 505 581 28,200 1,020 Climbing FlightAware ADS-B
09:24PM 31.0711 -96.2721 135° Southeast 508 585 28,700 960 Climbing FlightAware ADS-B
09:25PM 31.0206 -96.2125 135° Southeast 511 588 29,200 960 Climbing FlightAware ADS-B
09:25PM 30.9701 -96.1530 135° Southeast 514 592 29,700 960 Climbing FlightAware ADS-B
09:26PM 30.9196 -96.0938 135° Southeast 517 595 30,200 900 Climbing FlightAware ADS-B
09:26PM 30.8689 -96.0346 135° Southeast 518 596 30,600 1,140 Climbing FlightAware ADS-B
09:27PM 30.8167 -95.9738 135° Southeast 513 590 31,400 1,020 Climbing FlightAware ADS-B
09:28PM 30.6617 -95.7936 135° Southeast 520 598 32,700 780 Climbing FlightAware ADS-B
09:29PM 30.6101 -95.7338 135° Southeast 521 600 33,000 180 Climbing FlightAware ADS-B
09:30PM 30.5065 -95.6141 135° Southeast 520 598 33,000 60 Level FlightAware ADS-B
09:31PM 30.4554 -95.5550 135° Southeast 522 601 33,100 480 Climbing FlightAware ADS-B
09:31PM 30.4020 -95.4935 135° Southeast 522 601 33,500 720 Climbing FlightAware ADS-B
09:32PM 30.2892 -95.3639 135° Southeast 523 602 34,300 660 Climbing FlightAware ADS-B
09:33PM 30.2373 -95.3045 135° Southeast 526 605 34,600 540 Climbing FlightAware ADS-B
09:35PM 30.0268 -95.0642 135° Southeast 530 610 35,800 480 Climbing FlightAware ADS-B
09:36PM 29.8685 -94.8846 135° Southeast 533 613 36,400 300 Climbing FlightAware ADS-B
09:37PM 29.7615 -94.7637 136° Southeast 537 618 36,600 300 Climbing FlightAware ADS-B
09:38PM 29.7077 -94.7029 136° Southeast 536 617 36,900 360 Climbing FlightAware ADS-B
09:38PM 29.6538 -94.6422 136° Southeast 535 616 37,000  Climbing FlightAware ADS-B
09:40PM 29.4943 -94.4631 136° Southeast 530 610 37,000  Level FlightAware ADS-B
09:40PM 29.4408 -94.4034 136° Southeast 528 608 37,000  Level FlightAware ADS-B
09:41PM 29.3879 -94.3443 136° Southeast 527 606 37,000  Level FlightAware ADS-B
09:42PM 29.2819 -94.2260 136° Southeast 524 603 37,000  Level FlightAware ADS-B
09:42PM 29.2289 -94.1672 136° Southeast 523 602 37,000  Level FlightAware ADS-B
09:43PM 29.1765 -94.1090 136° Southeast 523 602 37,000  Level FlightAware ADS-B
09:43PM 29.1214 -94.0417 136° Southeast 522 601 37,000  Level Houston Center
09:44PM 29.0167 -93.9269 136° Southeast 520 598 37,000  Level Houston Center
09:45PM 28.9094 -93.8136 137° Southeast 519 597 37,000  Level Houston Center
09:46PM 28.8072 -93.7011 136° Southeast 518 596 37,000  Level Houston Center
09:47PM 28.7036 -93.5872 136° Southeast 518 596 37,000  Level Houston Center
09:48PM 28.5989 -93.4736 136° Southeast 516 594 37,000  Level Houston Center
09:49PM 28.4967 -93.3608 136° Southeast 516 594 37,000 -60 Level Houston Center
09:50PM 28.3931 -93.2489 136° Southeast 515 593 36,900  Descending Houston Center
09:52PM 28.2900 -93.1386 137° Southeast 511 588 37,000  Climbing Houston Center
09:53PM 28.1883 -93.0264 136° Southeast 510 587 36,900  Descending Houston Center
09:58PM 27.5907 -92.3879 136° Southeast 504 580 37,000  Climbing FlightAware ADS-B
10:00PM 27.4564 -92.2472 136° Southeast 503 579 36,900 -60 Descending Houston Center
10:01PM 27.3539 -92.1389 137° Southeast 505 581 36,900  Level Houston Center
10:02PM 27.2514 -92.0300 137° Southeast 506 582 37,000  Climbing Houston Center
10:03PM 27.1486 -91.9256 138° Southeast 503 579 37,000  Level Houston Center
10:05PM 26.9570 -91.7704 144° Southeast  Level FlightAware Approximate
10:12PM 26.2082 -91.1750 146° Southeast  Level FlightAware Approximate
10:13PM 26.0998 -91.0925 146° Southeast  Level FlightAware Approximate
10:14PM 25.9915 -91.0099 144° Southeast  Level FlightAware Approximate
10:15PM 25.8850 -90.9246 144° Southeast  Level FlightAware Approximate
10:16PM 25.7785 -90.8394 144° Southeast  Level FlightAware Approximate
10:17PM 25.6720 -90.7542 144° Southeast  Level FlightAware Approximate
10:18PM 25.5655 -90.6690 144° Southeast  Level FlightAware Approximate
10:19PM 25.4582 -90.5853 146° Southeast  Level FlightAware Approximate
10:20PM 25.3496 -90.5037 146° Southeast  Level FlightAware Approximate
10:21PM 25.2409 -90.4222 146° Southeast  Level FlightAware Approximate
10:22PM 25.1330 -90.3397 144° Southeast  Level FlightAware Approximate
10:23PM 25.0267 -90.2547 144° Southeast  Level FlightAware Approximate
10:24PM 24.9194 -90.1713 145° Southeast  Level FlightAware Approximate
10:25PM 24.8117 -90.0885 145° Southeast  Level FlightAware Approximate
10:26PM 24.7040 -90.0059 145° Southeast  Level FlightAware Approximate
10:27PM 24.5962 -89.9235 145° Southeast  Level FlightAware Approximate
10:28PM 24.4896 -89.8396 138° Southeast  Level FlightAware Approximate
10:29PM 24.3812 -89.7584 146° Southeast  Level FlightAware Approximate
10:30PM 24.2719 -89.6785 146° Southeast  Level FlightAware Approximate
10:31PM 24.1627 -89.5988 146° Southeast  Level FlightAware Approximate
10:32PM 24.0534 -89.5191 146° Southeast  Level FlightAware Approximate
10:33PM 23.9455 -89.4372 145° Southeast  Level FlightAware Approximate
10:34PM 23.8377 -89.3554 145° Southeast  Level FlightAware Approximate
10:35PM 23.7298 -89.2737 145° Southeast  Level FlightAware Approximate
10:36PM 23.6218 -89.1921 145° Southeast  Level FlightAware Approximate
10:36PM 23.3930 -89.0190 145° Southeast 485 558 37,000  Level FlightAware
10:37PM 23.5139 -89.1107 145° Southeast  Level FlightAware Approximate
10:37PM 23.3260 -88.9670 145° Southeast 485 558 37,000  Level FlightAware
10:38PM 23.2590 -88.9180 146° Southeast 485 558 37,000  Level FlightAware
10:38PM 23.1640 -88.8470 146° Southeast 486 559 37,000  Level FlightAware
10:39PM 23.0990 -88.7990 146° Southeast 486 559 37,000  Level FlightAware
10:40PM 23.0190 -88.7380 145° Southeast 486 559 37,000  Level FlightAware
10:40PM 22.9360 -88.6790 147° Southeast 486 559 37,000  Level FlightAware
10:41PM 22.8690 -88.6300 146° Southeast 484 557 37,000  Level FlightAware
10:42PM 22.7740 -88.5590 145° Southeast 485 558 37,000  Level FlightAware
10:43PM 22.6920 -88.4990 146° Southeast 486 559 37,000  Level FlightAware
10:43PM 22.6160 -88.4420 145° Southeast 485 558 37,000  Level FlightAware
10:44PM 22.5420 -88.3730 139° Southeast 483 556 37,000  Level FlightAware
10:45PM 22.4820 -88.3130 137° Southeast 484 557 37,000  Level FlightAware
10:45PM 22.4200 -88.2490 136° Southeast 483 556 37,000  Level FlightAware
10:46PM 22.3510 -88.1790 137° Southeast 481 554 37,000  Level FlightAware
10:47PM 22.2830 -88.1100 137° Southeast 481 554 37,000  Level FlightAware
10:47PM 22.2180 -88.0440 137° Southeast 480 552 37,000  Level FlightAware
10:48PM 22.1360 -87.9610 137° Southeast 479 551 37,000  Level FlightAware
10:49PM 22.0830 -87.9080 137° Southeast 478 550 37,000  Level FlightAware
10:50PM 22.0090 -87.8330 137° Southeast 478 550 37,000  Level FlightAware
10:51PM 21.9120 -87.7360 137° Southeast 479 551 37,000  Level FlightAware
10:51PM 21.8580 -87.6820 137° Southeast 478 550 37,000  Level FlightAware
10:52PM 21.7600 -87.5840 137° Southeast 476 548 37,000  Level FlightAware
10:53PM 21.6760 -87.5010 137° Southeast 477 549 37,000  Level FlightAware
10:54PM 21.5900 -87.4150 137° Southeast 477 549 37,000  Level FlightAware
10:54PM 21.5250 -87.3510 138° Southeast 476 548 37,000  Level FlightAware
10:55PM 21.4530 -87.2800 137° Southeast 475 547 37,000  Level FlightAware
10:56PM 21.3900 -87.2180 137° Southeast 476 548 37,000  Level FlightAware
10:57PM 21.3130 -87.1420 137° Southeast 474 545 37,000  Level FlightAware
10:57PM 21.2480 -87.0780 137° Southeast 474 545 37,000  Level FlightAware
10:58PM 21.1780 -87.0090 137° Southeast 474 545 37,000  Level FlightAware
10:59PM 21.1130 -86.9450 137° Southeast 472 543 37,000  Level FlightAware
10:59PM 21.0430 -86.8760 137° Southeast 469 540 37,000  Level FlightAware
11:00PM 20.9790 -86.8140 138° Southeast 470 541 37,000  Level FlightAware
11:01PM 20.9080 -86.7450 138° Southeast 469 540 37,000  Level FlightAware
11:02PM 20.8430 -86.6820 138° Southeast 469 540 37,000  Level FlightAware
11:02PM 20.7820 -86.6230 138° Southeast 469 540 37,000  Level FlightAware
11:03PM 20.7100 -86.5530 138° Southeast 469 540 37,000  Level FlightAware
11:04PM 20.6440 -86.4900 138° Southeast 470 541 37,000  Level FlightAware
11:04PM 20.5690 -86.4170 138° Southeast 470 541 37,000  Level FlightAware
11:05PM 20.5120 -86.3620 138° Southeast 470 541 37,000  Level FlightAware
11:06PM 20.4450 -86.2980 138° Southeast 471 542 37,000  Level FlightAware
11:06PM 20.3830 -86.2380 138° Southeast 471 542 37,000  Level FlightAware
11:07PM 20.3190 -86.1750 137° Southeast 472 543 37,000  Level FlightAware
11:08PM 20.2540 -86.1100 137° Southeast 472 543 37,000  Level FlightAware
11:09PM 20.1640 -86.0270 139° Southeast 472 543 37,000  Level FlightAware
11:09PM 20.0920 -85.9580 138° Southeast 472 543 37,000  Level FlightAware
11:10PM 20.0310 -85.8990 138° Southeast 473 544 37,000  Level FlightAware
11:11PM 19.9590 -85.8310 138° Southeast 475 547 37,000  Level FlightAware
11:11PM 19.8890 -85.7660 139° Southeast 475 547 37,000  Level FlightAware
11:12PM 19.8200 -85.7010 138° Southeast 477 549 37,000  Level FlightAware
11:13PM 19.7550 -85.6400 139° Southeast 476 548 37,000  Level FlightAware
11:13PM 19.6820 -85.5710 138° Southeast 476 548 37,000  Level FlightAware
11:14PM 19.6180 -85.5110 139° Southeast 476 548 37,000  Level FlightAware
11:15PM 19.5520 -85.4480 138° Southeast 476 548 37,000  Level FlightAware
11:16PM 19.4700 -85.3730 139° Southeast 476 548 37,000  Level FlightAware
11:16PM 19.4040 -85.3110 138° Southeast 477 549 37,000  Level FlightAware
11:17PM 19.3390 -85.2500 138° Southeast 478 550 37,000  Level FlightAware
11:18PM 19.2650 -85.1810 139° Southeast 478 550 37,000  Level FlightAware
11:18PM 19.2100 -85.1280 138° Southeast 478 550 37,000  Level FlightAware
11:19PM 19.1440 -85.0660 138° Southeast 478 550 37,000  Level FlightAware
11:20PM 19.0940 -85.0180 138° Southeast 478 550 37,000  Level FlightAware
11:21PM 18.9500 -84.8860 139° Southeast 479 551 37,000  Level FlightAware
11:22PM 18.9000 -84.8380 138° Southeast 479 551 37,000  Level FlightAware
11:22PM 18.8310 -84.7730 138° Southeast 479 551 37,000  Level FlightAware
11:23PM 18.7760 -84.7210 138° Southeast 479 551 37,000  Level FlightAware
11:24PM 18.7260 -84.6730 138° Southeast 479 551 37,000  Level FlightAware
11:24PM 18.6560 -84.6070 138° Southeast 479 551 37,000  Level FlightAware
11:25PM 18.6060 -84.5590 138° Southeast 479 551 37,000  Level FlightAware
11:26PM 18.5380 -84.4950 138° Southeast 479 551 37,000  Level FlightAware
11:26PM 18.4880 -84.4470 138° Southeast 479 551 37,000  Level FlightAware
11:27PM 18.4220 -84.3850 138° Southeast 479 551 37,000  Level FlightAware
11:28PM 18.3730 -84.3380 138° Southeast 479 551 37,000  Level FlightAware
11:29PM 18.3060 -84.2740 138° Southeast 479 551 37,000  Level FlightAware
11:29PM 18.2560 -84.2270 138° Southeast 479 551 37,000  Level FlightAware
11:30PM 18.1870 -84.1620 138° Southeast 479 551 37,000  Level FlightAware
11:33PM 17.8892 -84.0145 155° Southeast  Level FlightAware Approximate
11:34PM 17.7708 -83.9560 155° Southeast  Level FlightAware Approximate
11:35PM 17.6525 -83.8976 155° Southeast  Level FlightAware Approximate
11:36PM 17.5340 -83.8393 155° Southeast  Level FlightAware Approximate
11:37PM 17.4156 -83.7810 155° Southeast  Level FlightAware Approximate
11:38PM 17.2972 -83.7228 155° Southeast  Level FlightAware Approximate
11:39PM 17.1765 -83.6591 150° Southeast  Level FlightAware Approximate
11:40PM 17.0631 -83.5909 150° Southeast  Level FlightAware Approximate
11:41PM 16.9497 -83.5228 150° Southeast  Level FlightAware Approximate
11:42PM 16.8362 -83.4548 150° Southeast  Level FlightAware Approximate
11:43PM 16.7227 -83.3868 150° Southeast  Level FlightAware Approximate
11:44PM 16.6096 -83.3184 149° Southeast  Level FlightAware Approximate
11:45PM 16.4976 -83.2478 149° Southeast  Level FlightAware Approximate
11:46PM 16.3856 -83.1773 149° Southeast  Level FlightAware Approximate
11:47PM 16.2736 -83.1069 149° Southeast  Level FlightAware Approximate
11:48PM 16.1616 -83.0366 149° Southeast  Level FlightAware Approximate
11:49PM 16.0495 -82.9664 150° Southeast  Level FlightAware Approximate
11:50PM 15.9364 -82.8981 150° Southeast  Level FlightAware Approximate
11:51PM 15.8232 -82.8299 150° Southeast  Level FlightAware Approximate
11:52PM 15.7100 -82.7617 150° Southeast  Level FlightAware Approximate
11:53PM 15.5969 -82.6937 150° Southeast  Level FlightAware Approximate
11:54PM 15.4836 -82.6257 150° Southeast  Level FlightAware Approximate
11:55PM 15.3704 -82.5578 150° Southeast  Level FlightAware Approximate
11:56PM 15.2571 -82.4899 150° Southeast  Level FlightAware Approximate
11:57PM 15.1439 -82.4222 150° Southeast  Level FlightAware Approximate
11:58PM 15.0305 -82.3545 150° Southeast  Level FlightAware Approximate
11:59PM 14.9172 -82.2869 150° Southeast  Level FlightAware Approximate
12:00AM 14.8151 -82.2033 138° Southeast  Level FlightAware Approximate
12:01AM 14.7177 -82.1130 138° Southeast  Level FlightAware Approximate
12:02AM 14.6203 -82.0227 138° Southeast  Level FlightAware Approximate
12:03AM 14.5229 -81.9326 138° Southeast  Level FlightAware Approximate
12:04AM 14.4254 -81.8425 138° Southeast  Level FlightAware Approximate
12:05AM 14.3279 -81.7525 138° Southeast  Level FlightAware Approximate
12:06AM 14.2303 -81.6626 138° Southeast  Level FlightAware Approximate
12:07AM 14.1333 -81.5721 138° Southeast  Level FlightAware Approximate
12:08AM 14.0363 -81.4817 138° Southeast  Level FlightAware Approximate
12:09AM 13.9392 -81.3913 138° Southeast  Level FlightAware Approximate
12:10AM 13.8422 -81.3009 138° Southeast  Level FlightAware Approximate
12:11AM 13.7451 -81.2107 138° Southeast  Level FlightAware Approximate
12:12AM 13.6479 -81.1205 138° Southeast  Level FlightAware Approximate
12:13AM 13.5508 -81.0304 138° Southeast  Level FlightAware Approximate
12:14AM 13.4536 -80.9404 138° Southeast  Level FlightAware Approximate
12:15AM 13.3563 -80.8504 138° Southeast  Level FlightAware Approximate
12:16AM 13.2591 -80.7606 138° Southeast  Level FlightAware Approximate
12:17AM 13.1618 -80.6708 138° Southeast  Level FlightAware Approximate
12:18AM 13.0645 -80.5810 138° Southeast  Level FlightAware Approximate
12:19AM 12.9671 -80.4914 138° Southeast  Level FlightAware Approximate
12:20AM 12.8697 -80.4018 138° Southeast  Level FlightAware Approximate
12:21AM 12.7723 -80.3122 138° Southeast  Level FlightAware Approximate
12:22AM 12.6749 -80.2228 138° Southeast  Level FlightAware Approximate
12:23AM 12.5774 -80.1334 138° Southeast  Level FlightAware Approximate
12:24AM 12.4799 -80.0441 138° Southeast  Level FlightAware Approximate
12:25AM 12.3823 -79.9548 138° Southeast  Level FlightAware Approximate
12:26AM 12.2848 -79.8656 138° Southeast  Level FlightAware Approximate
12:27AM 12.1872 -79.7765 138° Southeast  Level FlightAware Approximate
12:28AM 12.0896 -79.6875 138° Southeast  Level FlightAware Approximate
12:29AM 11.9919 -79.5985 138° Southeast  Level FlightAware Approximate
12:30AM 11.8942 -79.5096 138° Southeast  Level FlightAware Approximate
12:31AM 11.7965 -79.4207 138° Southeast  Level FlightAware Approximate
12:32AM 11.6988 -79.3319 138° Southeast  Level FlightAware Approximate
12:33AM 11.6010 -79.2432 138° Southeast  Level FlightAware Approximate
12:34AM 11.5032 -79.1546 139° Southeast  Level FlightAware Approximate
12:35AM 11.4048 -79.0666 139° Southeast  Level FlightAware Approximate
12:36AM 11.3064 -78.9787 139° Southeast  Level FlightAware Approximate
12:37AM 11.2080 -78.8908 139° Southeast  Level FlightAware Approximate
12:38AM 11.1096 -78.8030 139° Southeast  Level FlightAware Approximate
12:39AM 11.0111 -78.7153 139° Southeast  Level FlightAware Approximate
12:40AM 10.9127 -78.6276 139° Southeast  Level FlightAware Approximate
12:41AM 10.8141 -78.5400 139° Southeast  Level FlightAware Approximate
12:42AM 10.7156 -78.4524 139° Southeast  Level FlightAware Approximate
12:43AM 10.6171 -78.3649 139° Southeast  Level FlightAware Approximate
12:44AM 10.5185 -78.2774 139° Southeast  Level FlightAware Approximate
12:45AM 10.4199 -78.1900 139° Southeast  Level FlightAware Approximate
12:46AM 10.3212 -78.1027 139° Southeast  Level FlightAware Approximate
12:47AM 10.2226 -78.0154 139° Southeast  Level FlightAware Approximate
12:48AM 10.1239 -77.9282 139° Southeast  Level FlightAware Approximate
12:49AM 10.0252 -77.8410 139° Southeast  Level FlightAware Approximate
12:50AM 9.9265 -77.7539 139° Southeast  Level FlightAware Approximate
12:51AM 9.8278 -77.6668 139° Southeast  Level FlightAware Approximate
12:52AM 9.7290 -77.5798 139° Southeast  Level FlightAware Approximate
12:53AM 9.6302 -77.4928 139° Southeast  Level FlightAware Approximate
12:54AM 9.5314 -77.4059 139° Southeast  Level FlightAware Approximate
12:55AM 9.4327 -77.3192 139° Southeast  Level FlightAware Approximate
12:56AM 9.3340 -77.2325 139° Southeast  Level FlightAware Approximate
12:57AM 9.2353 -77.1459 139° Southeast  Level FlightAware Approximate
12:58AM 9.1366 -77.0593 139° Southeast  Level FlightAware Approximate
12:59AM 9.0379 -76.9728 139° Southeast  Level FlightAware Approximate
01:00AM 8.9391 -76.8863 139° Southeast  Level FlightAware Approximate
01:00AM 9.1740 -75.7620 139° Southeast 467 537 37,000  Level FlightAware
01:01AM 8.8403 -76.7999 139° Southeast  Level FlightAware Approximate
01:01AM 9.0740 -75.6710 138° Southeast 466 536 37,000  Level FlightAware
01:02AM 9.0040 -75.6070 138° Southeast 464 534 37,000  Level FlightAware
01:03AM 8.9440 -75.5520 138° Southeast 464 534 37,000  Level FlightAware
01:03AM 8.8770 -75.4900 138° Southeast 464 534 37,000  Level FlightAware
01:04AM 8.7890 -75.4090 138° Southeast 464 534 37,000  Level FlightAware
01:05AM 8.6880 -75.3170 138° Southeast 464 534 37,000  Level FlightAware
01:06AM 8.7200 -75.3460 318° Northwest 464 534 37,000  Level FlightAware
01:07AM 8.6680 -75.2990 138° Southeast 464 534 37,000  Level FlightAware
01:07AM 8.6030 -75.2400 138° Southeast 464 534 37,000  Level FlightAware
01:08AM 8.5570 -75.1980 138° Southeast 464 534 37,000  Level FlightAware
01:09AM 8.4950 -75.1410 138° Southeast 464 534 37,000  Level FlightAware
01:10AM 8.4120 -75.0660 138° Southeast 464 534 37,000  Level FlightAware
01:10AM 8.3630 -75.0210 138° Southeast 464 534 37,000  Level FlightAware
01:11AM 8.3170 -74.9790 138° Southeast 464 534 37,000  Level FlightAware
01:12AM 8.2530 -74.9210 138° Southeast 464 534 37,000  Level FlightAware
01:12AM 8.1880 -74.8620 138° Southeast 464 534 37,000  Level FlightAware
01:13AM 8.1380 -74.8170 138° Southeast 464 534 37,000  Level FlightAware
01:14AM 8.0890 -74.7720 138° Southeast 464 534 37,000  Level FlightAware
01:14AM 8.0240 -74.7130 138° Southeast 464 534 37,000  Level FlightAware
01:15AM 7.9730 -74.6660 138° Southeast 464 534 37,000  Level FlightAware
01:16AM 7.9090 -74.6080 138° Southeast 464 534 37,000  Level FlightAware
01:19AM 7.6494 -74.3837 139° Southeast  Level Estimated
01:20AM 7.5502 -74.2981 139° Southeast  Level Estimated
01:21AM 7.4510 -74.2125 139° Southeast  Level Estimated
01:22AM 7.3517 -74.1270 139° Southeast  Level Estimated
01:23AM 7.2524 -74.0415 139° Southeast  Level Estimated
01:23AM 6.8800 -73.7250 139° Southeast 492 566 37,000  Level FlightAware
01:24AM 7.1532 -73.9560 139° Southeast  Level Estimated
01:24AM 6.7940 -73.6790 152° Southeast 492 566 37,000  Level FlightAware
01:25AM 6.7100 -73.6330 151° Southeast 493 567 37,000  Level FlightAware
01:25AM 6.6220 -73.5860 152° Southeast 493 567 37,000  Level FlightAware
01:26AM 6.5420 -73.5420 151° Southeast 494 568 37,000  Level FlightAware
01:27AM 6.4540 -73.4950 152° Southeast 494 568 37,000  Level FlightAware
01:28AM 6.3690 -73.4490 152° Southeast 491 565 37,000  Level FlightAware
01:28AM 6.2880 -73.4050 152° Southeast 489 563 37,000  Level FlightAware
01:29AM 6.2000 -73.3580 152° Southeast 489 563 37,000  Level FlightAware
01:30AM 6.1200 -73.3140 151° Southeast 489 563 37,000  Level FlightAware
01:30AM 6.0470 -73.2740 151° Southeast 489 563 37,000  Level FlightAware
01:31AM 5.9870 -73.2400 151° Southeast 489 563 37,000  Level FlightAware
01:32AM 5.9040 -73.1940 151° Southeast 489 563 37,000  Level FlightAware
01:32AM 5.8440 -73.1600 151° Southeast 489 563 37,000  Level FlightAware
01:33AM 5.7820 -73.1260 151° Southeast 489 563 37,000  Level FlightAware
01:34AM 5.6110 -73.0400 153° Southeast 493 567 37,000  Level FlightAware
01:35AM 5.5310 -72.9970 152° Southeast 491 565 37,000  Level FlightAware
01:35AM 5.4470 -72.9520 152° Southeast 490 564 37,000  Level FlightAware
01:36AM 5.3620 -72.9060 152° Southeast 490 564 37,000  Level FlightAware
01:37AM 5.2730 -72.8580 152° Southeast 489 563 37,000  Level FlightAware
01:37AM 5.1900 -72.8130 152° Southeast 490 564 37,000  Level FlightAware
01:38AM 5.1060 -72.7680 152° Southeast 489 563 37,000  Level FlightAware
01:39AM 5.0280 -72.7260 152° Southeast 489 563 37,000  Level FlightAware
01:39AM 4.9680 -72.6920 151° Southeast 489 563 37,000  Level FlightAware
01:40AM 4.8630 -72.6340 151° Southeast 489 563 37,000  Level FlightAware
01:41AM 4.8030 -72.6000 151° Southeast 489 563 37,000  Level FlightAware
01:42AM 4.7220 -72.5550 151° Southeast 489 563 37,000  Level FlightAware
01:42AM 4.6610 -72.5220 152° Southeast 489 563 37,000  Level FlightAware
01:43AM 4.5990 -72.4870 151° Southeast 489 563 37,000  Level FlightAware
01:44AM 4.5170 -72.4410 151° Southeast 489 563 37,000  Level FlightAware
01:44AM 4.4560 -72.4080 152° Southeast 489 563 37,000  Level FlightAware
01:45AM 4.3740 -72.3620 151° Southeast 489 563 37,000  Level FlightAware
01:46AM 4.3120 -72.3270 151° Southeast 489 563 37,000  Level FlightAware
01:47AM 4.2310 -72.2820 151° Southeast 489 563 37,000  Level FlightAware
01:47AM 4.1690 -72.2480 151° Southeast 489 563 37,000  Level FlightAware
01:48AM 4.1050 -72.2120 151° Southeast 489 563 37,000  Level FlightAware
01:51AM 3.8564 -71.9942 139° Southeast  Level Estimated
01:52AM 3.7582 -71.9082 139° Southeast  Level Estimated
01:53AM 3.6600 -71.8223 139° Southeast  Level Estimated
01:54AM 3.5619 -71.7364 139° Southeast  Level Estimated
01:55AM 3.4637 -71.6505 139° Southeast  Level Estimated
01:56AM 3.3655 -71.5646 139° Southeast  Level Estimated
01:57AM 3.2673 -71.4787 139° Southeast  Level Estimated
01:58AM 3.1691 -71.3929 139° Southeast  Level Estimated
01:59AM 3.0709 -71.3070 139° Southeast  Level Estimated
02:00AM 2.9727 -71.2212 139° Southeast  Level Estimated
02:01AM 2.8745 -71.1354 139° Southeast  Level Estimated
02:02AM 2.7762 -71.0497 139° Southeast  Level Estimated
02:03AM 2.6780 -70.9639 139° Southeast  Level Estimated
02:04AM 2.5798 -70.8781 139° Southeast  Level Estimated
02:05AM 2.4815 -70.7924 139° Southeast  Level Estimated
02:06AM 2.3832 -70.7066 139° Southeast  Level Estimated
02:07AM 2.2850 -70.6209 139° Southeast  Level Estimated
02:08AM 2.1867 -70.5352 139° Southeast  Level Estimated
02:09AM 2.0884 -70.4495 139° Southeast  Level Estimated
02:10AM 1.9902 -70.3639 139° Southeast  Level Estimated
02:11AM 1.8919 -70.2782 139° Southeast  Level Estimated
02:12AM 1.7936 -70.1925 139° Southeast  Level Estimated
02:13AM 1.6953 -70.1069 139° Southeast  Level Estimated
02:14AM 1.5970 -70.0212 139° Southeast  Level Estimated
02:15AM 1.4987 -69.9356 139° Southeast  Level Estimated
02:16AM 1.4004 -69.8500 139° Southeast  Level Estimated
02:17AM 1.3022 -69.7643 139° Southeast  Level Estimated
02:18AM 1.2039 -69.6787 139° Southeast  Level Estimated
02:19AM 1.1055 -69.5931 139° Southeast  Level Estimated
02:20AM 1.0072 -69.5075 139° Southeast  Level Estimated
02:21AM 0.9089 -69.4219 139° Southeast  Level Estimated
02:22AM 0.8106 -69.3363 139° Southeast  Level Estimated
02:23AM 0.7123 -69.2507 139° Southeast  Level Estimated
02:24AM 0.6140 -69.1651 139° Southeast  Level Estimated
02:25AM 0.5156 -69.0796 139° Southeast  Level Estimated
02:26AM 0.4173 -68.9940 139° Southeast  Level Estimated
02:27AM 0.3190 -68.9084 139° Southeast  Level Estimated
02:28AM 0.2207 -68.8228 139° Southeast  Level Estimated
02:29AM 0.1224 -68.7372 139° Southeast  Level Estimated
02:30AM 0.0240 -68.6517 139° Southeast  Level Estimated
02:31AM -0.0743 -68.5661 139° Southeast  Level Estimated
02:32AM -0.1726 -68.4805 139° Southeast  Level Estimated
02:33AM -0.2709 -68.3949 139° Southeast  Level Estimated
02:34AM -0.3692 -68.3093 139° Southeast  Level Estimated
02:35AM -0.4676 -68.2238 139° Southeast  Level Estimated
02:36AM -0.5659 -68.1382 139° Southeast  Level Estimated
02:37AM -0.6642 -68.0526 139° Southeast  Level Estimated
02:38AM -0.7625 -67.9670 139° Southeast  Level Estimated
02:39AM -0.8608 -67.8814 139° Southeast  Level Estimated
02:40AM -0.9591 -67.7958 139° Southeast  Level Estimated
02:41AM -1.0574 -67.7102 139° Southeast  Level Estimated
02:42AM -1.1558 -67.6246 139° Southeast  Level Estimated
02:43AM -1.2541 -67.5390 139° Southeast  Level Estimated
02:44AM -1.3524 -67.4534 139° Southeast  Level Estimated
02:45AM -1.4507 -67.3678 139° Southeast  Level Estimated
02:46AM -1.5490 -67.2821 139° Southeast  Level Estimated
02:47AM -1.6473 -67.1965 139° Southeast  Level Estimated
02:48AM -1.7455 -67.1108 139° Southeast  Level Estimated
02:49AM -1.8438 -67.0252 139° Southeast  Level Estimated
02:50AM -1.9421 -66.9395 139° Southeast  Level Estimated
02:51AM -2.0404 -66.8538 139° Southeast  Level Estimated
02:52AM -2.1387 -66.7681 139° Southeast  Level Estimated
02:53AM -2.2369 -66.6824 139° Southeast  Level Estimated
02:54AM -2.3352 -66.5967 139° Southeast  Level Estimated
02:55AM -2.4334 -66.5110 139° Southeast  Level Estimated
02:56AM -2.5317 -66.4253 139° Southeast  Level Estimated
02:57AM -2.6300 -66.3395 139° Southeast  Level Estimated
02:58AM -2.7282 -66.2538 139° Southeast  Level Estimated
02:59AM -2.8264 -66.1680 139° Southeast  Level Estimated
03:00AM -2.9246 -66.0822 139° Southeast  Level Estimated
03:01AM -3.0229 -65.9964 139° Southeast  Level Estimated
03:02AM -3.1211 -65.9106 139° Southeast  Level Estimated
03:03AM -3.2193 -65.8247 139° Southeast  Level Estimated
03:04AM -3.3175 -65.7389 139° Southeast  Level Estimated
03:05AM -3.4157 -65.6530 139° Southeast  Level Estimated
03:06AM -3.5139 -65.5671 139° Southeast  Level Estimated
03:07AM -3.6121 -65.4812 139° Southeast  Level Estimated
03:08AM -3.7102 -65.3953 139° Southeast  Level Estimated
03:09AM -3.8084 -65.3093 139° Southeast  Level Estimated
03:10AM -3.9065 -65.2234 139° Southeast  Level Estimated
03:11AM -4.0047 -65.1374 139° Southeast  Level Estimated
03:12AM -4.1028 -65.0514 139° Southeast  Level Estimated
03:13AM -4.2009 -64.9654 139° Southeast  Level Estimated
03:14AM -4.2990 -64.8793 139° Southeast  Level Estimated
03:15AM -4.3972 -64.7932 139° Southeast  Level Estimated
03:16AM -4.4953 -64.7072 139° Southeast  Level Estimated
03:17AM -4.5933 -64.6210 139° Southeast  Level Estimated
03:18AM -4.6914 -64.5349 139° Southeast  Level Estimated
03:19AM -4.7895 -64.4487 139° Southeast  Level Estimated
03:20AM -4.8875 -64.3625 139° Southeast  Level Estimated
03:21AM -4.9856 -64.2763 139° Southeast  Level Estimated
03:22AM -5.0836 -64.1901 139° Southeast  Level Estimated
03:23AM -5.1816 -64.1038 139° Southeast  Level Estimated
03:24AM -5.2797 -64.0175 139° Southeast  Level Estimated
03:25AM -5.3776 -63.9312 139° Southeast  Level Estimated
03:26AM -5.4756 -63.8449 139° Southeast  Level Estimated
03:27AM -5.5736 -63.7585 139° Southeast  Level Estimated
03:28AM -5.6716 -63.6721 139° Southeast  Level Estimated
03:29AM -5.7695 -63.5857 139° Southeast  Level Estimated
03:30AM -5.8675 -63.4992 139° Southeast  Level Estimated
03:31AM -5.9654 -63.4127 139° Southeast  Level Estimated
03:32AM -6.0633 -63.3262 139° Southeast  Level Estimated
03:33AM -6.1612 -63.2396 139° Southeast  Level Estimated
03:34AM -6.2590 -63.1530 139° Southeast  Level Estimated
03:35AM -6.3569 -63.0664 139° Southeast  Level Estimated
03:36AM -6.4548 -62.9798 139° Southeast  Level Estimated
03:37AM -6.5526 -62.8931 139° Southeast  Level Estimated
03:38AM -6.6504 -62.8064 139° Southeast  Level Estimated
03:39AM -6.7482 -62.7196 139° Southeast  Level Estimated
03:40AM -6.8460 -62.6328 139° Southeast  Level Estimated
03:41AM -6.9438 -62.5460 139° Southeast  Level Estimated
03:42AM -7.0416 -62.4591 139° Southeast  Level Estimated
03:43AM -7.1393 -62.3722 139° Southeast  Level Estimated
03:44AM -7.2370 -62.2853 139° Southeast  Level Estimated
03:45AM -7.3348 -62.1983 139° Southeast  Level Estimated
03:46AM -7.4324 -62.1113 139° Southeast  Level Estimated
03:47AM -7.5301 -62.0242 139° Southeast  Level Estimated
03:48AM -7.6278 -61.9371 139° Southeast  Level Estimated
03:49AM -7.7254 -61.8500 139° Southeast  Level Estimated
03:50AM -7.8231 -61.7629 139° Southeast  Level Estimated
03:51AM -7.9207 -61.6756 138° Southeast  Level Estimated
03:52AM -8.0186 -61.5881 138° Southeast  Level Estimated
03:53AM -8.1165 -61.5005 138° Southeast  Level Estimated
03:54AM -8.2144 -61.4128 138° Southeast  Level Estimated
03:55AM -8.3123 -61.3251 138° Southeast  Level Estimated
03:56AM -8.4101 -61.2374 138° Southeast  Level Estimated
03:57AM -8.5080 -61.1497 138° Southeast  Level Estimated
03:58AM -8.6058 -61.0618 138° Southeast  Level Estimated
03:59AM -8.7036 -60.9740 138° Southeast  Level Estimated
04:00AM -8.8014 -60.8861 138° Southeast  Level Estimated
04:01AM -8.8991 -60.7981 138° Southeast  Level Estimated
04:02AM -8.9969 -60.7101 138° Southeast  Level Estimated
04:03AM -9.0946 -60.6221 138° Southeast  Level Estimated
04:04AM -9.1923 -60.5340 138° Southeast  Level Estimated
04:05AM -9.2900 -60.4458 138° Southeast  Level Estimated
04:06AM -9.3876 -60.3576 138° Southeast  Level Estimated
04:07AM -9.4852 -60.2693 138° Southeast  Level Estimated
04:08AM -9.5828 -60.1810 138° Southeast  Level Estimated
04:09AM -9.6804 -60.0927 138° Southeast  Level Estimated
04:10AM -9.7780 -60.0043 138° Southeast  Level Estimated
04:11AM -9.8755 -59.9159 138° Southeast  Level Estimated
04:12AM -9.9730 -59.8274 138° Southeast  Level Estimated
04:13AM -10.0705 -59.7388 138° Southeast  Level Estimated
04:14AM -10.1680 -59.6502 138° Southeast  Level Estimated
04:15AM -10.2654 -59.5615 138° Southeast  Level Estimated
04:16AM -10.3629 -59.4728 138° Southeast  Level Estimated
04:17AM -10.4603 -59.3840 138° Southeast  Level Estimated
04:18AM -10.5576 -59.2952 138° Southeast  Level Estimated
04:19AM -10.6550 -59.2063 138° Southeast  Level Estimated
04:20AM -10.7523 -59.1174 138° Southeast  Level Estimated
04:21AM -10.8496 -59.0284 138° Southeast  Level Estimated
04:22AM -10.9469 -58.9393 138° Southeast  Level Estimated
04:23AM -11.0441 -58.8502 138° Southeast  Level Estimated
04:24AM -11.1413 -58.7610 138° Southeast  Level Estimated
04:25AM -11.2385 -58.6718 138° Southeast  Level Estimated
04:26AM -11.3357 -58.5825 138° Southeast  Level Estimated
04:27AM -11.4328 -58.4931 138° Southeast  Level Estimated
04:28AM -11.5300 -58.4037 138° Southeast  Level Estimated
04:29AM -11.6271 -58.3142 138° Southeast  Level Estimated
04:30AM -11.7241 -58.2247 138° Southeast  Level Estimated
04:31AM -11.8211 -58.1351 138° Southeast  Level Estimated
04:32AM -11.9181 -58.0454 138° Southeast  Level Estimated
04:33AM -12.0151 -57.9557 138° Southeast  Level Estimated
04:34AM -12.1121 -57.8659 138° Southeast  Level Estimated
04:35AM -12.2090 -57.7760 138° Southeast  Level Estimated
04:36AM -12.3059 -57.6861 138° Southeast  Level Estimated
04:37AM -12.4027 -57.5961 138° Southeast  Level Estimated
04:38AM -12.4995 -57.5060 138° Southeast  Level Estimated
04:39AM -12.5963 -57.4159 138° Southeast  Level Estimated
04:40AM -12.6931 -57.3257 138° Southeast  Level Estimated
04:41AM -12.7899 -57.2354 138° Southeast  Level Estimated
04:42AM -12.8866 -57.1451 138° Southeast  Level Estimated
04:43AM -12.9832 -57.0547 138° Southeast  Level Estimated
04:44AM -13.0799 -56.9642 138° Southeast  Level Estimated
04:45AM -13.1765 -56.8736 138° Southeast  Level Estimated
04:46AM -13.2731 -56.7830 138° Southeast  Level Estimated
04:47AM -13.3696 -56.6923 138° Southeast  Level Estimated
04:48AM -13.4662 -56.6016 138° Southeast  Level Estimated
04:49AM -13.5626 -56.5107 138° Southeast  Level Estimated
04:50AM -13.6591 -56.4198 138° Southeast  Level Estimated
04:51AM -13.7555 -56.3288 137° Southeast  Level Estimated
04:52AM -13.8519 -56.2378 137° Southeast  Level Estimated
04:53AM -13.9482 -56.1467 137° Southeast  Level Estimated
04:54AM -14.0445 -56.0555 137° Southeast  Level Estimated
04:55AM -14.1408 -55.9642 137° Southeast  Level Estimated
04:56AM -14.2371 -55.8728 137° Southeast  Level Estimated
04:57AM -14.3333 -55.7814 137° Southeast  Level Estimated
04:58AM -14.4295 -55.6898 137° Southeast  Level Estimated
04:59AM -14.5256 -55.5982 137° Southeast  Level Estimated
05:00AM -14.6217 -55.5066 137° Southeast  Level Estimated
05:01AM -14.7178 -55.4148 137° Southeast  Level Estimated
05:02AM -14.8138 -55.3230 137° Southeast  Level Estimated
05:03AM -14.9098 -55.2310 137° Southeast  Level Estimated
05:04AM -15.0058 -55.1390 137° Southeast  Level Estimated
05:05AM -15.1017 -55.0470 137° Southeast  Level Estimated
05:06AM -15.1976 -54.9548 137° Southeast  Level Estimated
05:07AM -15.2935 -54.8625 137° Southeast  Level Estimated
05:08AM -15.3893 -54.7702 137° Southeast  Level Estimated
05:09AM -15.4850 -54.6778 137° Southeast  Level Estimated
05:10AM -15.5808 -54.5853 137° Southeast  Level Estimated
05:11AM -15.6765 -54.4927 137° Southeast  Level Estimated
05:12AM -15.7721 -54.4000 137° Southeast  Level Estimated
05:13AM -15.8678 -54.3072 137° Southeast  Level Estimated
05:14AM -15.9633 -54.2144 137° Southeast  Level Estimated
05:15AM -16.0589 -54.1214 137° Southeast  Level Estimated
05:16AM -16.1544 -54.0284 137° Southeast  Level Estimated
05:17AM -16.2498 -53.9352 137° Southeast  Level Estimated
05:18AM -16.3453 -53.8420 137° Southeast  Level Estimated
05:19AM -16.4406 -53.7487 137° Southeast  Level Estimated
05:20AM -16.5360 -53.6553 137° Southeast  Level Estimated
05:21AM -16.6313 -53.5618 137° Southeast  Level Estimated
05:22AM -16.7265 -53.4682 137° Southeast  Level Estimated
05:23AM -16.8217 -53.3745 137° Southeast  Level Estimated
05:24AM -16.9169 -53.2808 137° Southeast  Level Estimated
05:25AM -17.0120 -53.1869 137° Southeast  Level Estimated
05:26AM -17.1071 -53.0929 137° Southeast  Level Estimated
05:27AM -17.2022 -52.9989 137° Southeast  Level Estimated
05:28AM -17.2971 -52.9047 137° Southeast  Level Estimated
05:29AM -17.3921 -52.8105 137° Southeast  Level Estimated
05:30AM -17.4870 -52.7161 137° Southeast  Level Estimated
05:31AM -17.5819 -52.6217 137° Southeast  Level Estimated
05:32AM -17.6767 -52.5271 136° Southeast  Level Estimated
05:33AM -17.7715 -52.4325 136° Southeast  Level Estimated
05:34AM -17.8662 -52.3377 136° Southeast  Level Estimated
05:35AM -17.9609 -52.2429 136° Southeast  Level Estimated
05:36AM -18.0555 -52.1479 136° Southeast  Level Estimated
05:37AM -18.1501 -52.0529 136° Southeast  Level Estimated
05:37AM -18.9600 -50.7150 136° Southeast 519 597 39,000  Level FlightAware
05:38AM -18.2446 -51.9577 136° Southeast  Level Estimated
05:38AM -19.0370 -50.6310 134° Southeast 519 597 39,000  Level FlightAware
05:38AM -19.0980 -50.5650 134° Southeast 521 600 39,000  Level FlightAware
05:39AM -19.1650 -50.4920 134° Southeast 521 600 39,000  Level FlightAware
05:40AM -19.2360 -50.4150 134° Southeast 521 600 39,000  Level FlightAware
05:40AM -19.3060 -50.3390 134° Southeast 523 602 39,000  Level FlightAware
05:41AM -19.3820 -50.2560 134° Southeast 524 603 39,000  Level FlightAware
05:42AM -19.4520 -50.1800 134° Southeast 525 604 39,000  Level FlightAware
05:43AM -19.5190 -50.1060 134° Southeast 526 605 39,000  Level FlightAware
05:43AM -19.5890 -50.0300 134° Southeast 527 606 39,000  Level FlightAware
05:44AM -19.6660 -49.9460 134° Southeast 527 606 39,000  Level FlightAware
05:45AM -19.7710 -49.8300 134° Southeast 527 606 39,000  Level FlightAware
05:46AM -19.8420 -49.7530 134° Southeast 529 609 39,000  Level FlightAware
05:46AM -19.9210 -49.6660 134° Southeast 529 609 39,000  Level FlightAware
05:47AM -19.9880 -49.5920 134° Southeast 529 609 39,000  Level FlightAware
05:48AM -20.0540 -49.5190 134° Southeast 531 611 39,000  Level FlightAware
05:49AM -20.1310 -49.4340 134° Southeast 530 610 39,000  Level FlightAware
05:49AM -20.2000 -49.3570 134° Southeast 533 613 39,000  Level FlightAware
05:50AM -20.2750 -49.2740 134° Southeast 533 613 39,000  Level FlightAware
05:51AM -20.3470 -49.1940 134° Southeast 534 615 39,000  Level FlightAware
05:51AM -20.4120 -49.1230 134° Southeast 534 615 39,000  Level FlightAware
05:52AM -20.4930 -49.0320 134° Southeast 533 613 39,000  Level FlightAware
05:53AM -20.5650 -48.9520 134° Southeast 531 611 39,000  Level FlightAware
05:53AM -20.6320 -48.8770 134° Southeast 531 611 39,000  Level FlightAware
05:54AM -20.7070 -48.7930 134° Southeast 531 611 39,000  Level FlightAware
05:55AM -20.7630 -48.7310 134° Southeast 532 612 39,000  Level FlightAware
05:56AM -20.8490 -48.6340 134° Southeast 530 610 39,000  Level FlightAware
05:56AM -20.9120 -48.5630 134° Southeast 520 598 39,000  Level FlightAware
05:57AM -20.9880 -48.4780 134° Southeast 517 595 39,000  Level FlightAware
05:58AM -21.0570 -48.4000 133° Southeast 514 592 39,000  Level FlightAware
05:58AM -21.1190 -48.3300 134° Southeast 514 592 39,000  Level FlightAware
05:59AM -21.1950 -48.2450 134° Southeast 513 590 39,000  Level FlightAware
06:00AM -21.2620 -48.1690 133° Southeast 513 590 39,000  Level FlightAware
06:00AM -21.3310 -48.0900 133° Southeast 514 592 39,000  Level FlightAware
06:01AM -21.4020 -48.0110 134° Southeast 513 590 39,000  Level FlightAware
06:02AM -21.4740 -47.9480 141° Southeast 497 572 39,000  Level FlightAware
06:03AM -21.5590 -47.8850 145° Southeast 499 574 39,000 -540 Level FlightAware
06:03AM -21.6370 -47.8250 144° Southeast 500 575 38,300 -1,260 Descending FlightAware
06:04AM -21.7120 -47.7650 143° Southeast 506 582 37,300 -1,500 Descending FlightAware
06:05AM -21.7920 -47.7020 144° Southeast 501 577 36,300 -2,220 Descending FlightAware
06:05AM -21.8740 -47.6390 145° Southeast 508 585 34,100 -2,760 Descending FlightAware
06:06AM -21.9530 -47.5790 145° Southeast 505 581 32,400 -2,400 Descending FlightAware
06:07AM -22.0360 -47.5150 144° Southeast 499 574 30,800 -2,280 Descending FlightAware
06:07AM -22.1100 -47.4580 144° Southeast 491 565 29,300 -2,160 Descending FlightAware
06:08AM -22.1860 -47.3990 144° Southeast 483 556 27,900 -2,100 Descending FlightAware
06:09AM -22.2630 -47.3400 145° Southeast 475 547 26,400 -2,100 Descending FlightAware
06:10AM -22.3390 -47.2820 145° Southeast 468 539 25,000 -2,040 Descending FlightAware
06:10AM -22.4160 -47.2220 144° Southeast 459 528 23,500 -1,980 Descending FlightAware
06:11AM -22.4810 -47.1720 145° Southeast 451 519 22,300 -1,980 Descending FlightAware
06:12AM -22.5450 -47.1220 144° Southeast 444 511 21,000 -1,980 Descending FlightAware
06:12AM -22.6260 -47.0770 153° Southeast 428 493 19,500 -1,980 Descending FlightAware
06:13AM -22.7110 -47.0420 159° South 419 482 18,000 -2,040 Descending FlightAware
06:14AM -22.7600 -47.0210 158° South 411 473 17,100 -1,980 Descending FlightAware
06:14AM -22.8310 -46.9910 159° South 401 461 15,800 -1,980 Descending FlightAware
06:15AM -22.9080 -46.9590 159° South 380 437 14,300 -2,040 Descending FlightAware
06:16AM -22.9830 -46.9270 159° South 354 407 12,700 -1,980 Descending FlightAware
06:16AM -23.0450 -46.9010 159° South 304 350 11,400 -1,740 Descending FlightAware
06:17AM -23.0940 -46.8800 158° South 280 322 10,300 -1,440 Descending FlightAware
06:18AM -23.1260 -46.8620 153° Southeast 286 329 9,800 -1,020 Descending FlightAware
06:18AM -23.1520 -46.8320 133° Southeast 298 343 9,400 -960 Descending FlightAware
06:19AM -23.1780 -46.7990 131° Southeast 301 346 8,900 -1,020 Descending FlightAware
06:19AM -23.2020 -46.7690 131° Southeast 299 344 8,500 -1,020 Descending FlightAware
06:19AM -23.2290 -46.7350 131° Southeast 294 338 8,000 -1,080 Descending FlightAware
06:20AM -23.2530 -46.7060 132° Southeast 284 327 7,500 -1,080 Descending FlightAware
06:20AM -23.2820 -46.6800 141° Southeast 273 314 7,000 -720 Descending FlightAware
06:21AM -23.2960 -46.6740 159° South 262 302 7,000 -600 Level FlightAware
06:21AM -23.3300 -46.6640 165° South 243 280 6,600 -1,080 Descending FlightAware
06:22AM -23.3610 -46.6570 168° South 246 283 6,000 -1,320 Descending FlightAware
06:22AM -23.3930 -46.6480 166° South 242 278 5,400 -780 Descending FlightAware
06:22AM -23.4190 -46.6420 168° South 220 253 5,300 -240 Descending FlightAware
06:23AM -23.4460 -46.6340 165° South 203 234 5,200 -540 Descending FlightAware
06:23AM -23.4610 -46.6300 166° South 192 221 4,900 -1,260 Descending FlightAware
06:23AM -23.4690 -46.6240 145° Southeast 184 212 4,600 -1,260 Descending FlightAware
06:24AM -23.4720 -46.6150 110° East 165 190 4,400 -600 Descending FlightAware
06:24AM -23.4670 -46.5920 77° East 149 171 4,200 -600 Descending FlightAware
06:25AM -23.4620 -46.5750 72° East 143 165 3,900 -780 Descending FlightAware
06:25AM -23.4570 -46.5530 76° East 141 162 3,500 -840 Descending FlightAware
06:26AM -23.4510 -46.5330 72° East 138 159 3,100 -780 Descending FlightAware
06:26AM -23.4470 -46.5160 76° East 138 159 2,800 -780 Descending FlightAware
06:26AM -23.4410 -46.4950 73° East 140 161 2,400 -840 Descending FlightAware
06:27AM -23.4360 -46.4760 74° East 105 121 -4,800 Descending FlightAware
06:27AM -23.4340 -46.4690 73° East 55 63  Level FlightAware
06:28AM -23.4320 -46.4630 70° East 55 63  Level FlightAware